Washington, DC (20536)

11:17 PM EST on January 29, 2015 (GMT -0500)
Eckington Pl, NE | Change Station
CLOSE
Current Station
Personal Weather Station
Location: Washington, DC
Elevation: 90 ft
Nearby Weather Stations

Elev 90 ft 38.91 °N, 77.01 °W | Updated 3 minutes ago

Overcast
Overcast
38.3 °F
Feels Like 35 °F
N
4.0
Wind Variable Wind from SE
Gusts 12.0 mph

Today
High -- | Low -- °F
--% Chance of Precip.
Yesterday
High -- | Low -- °F
Precip. -- in
7:17 AM 5:25 PM
Waxing Gibbous, 79% visible
Pressure 29.95 in
Visibility 10.0 miles
Clouds Overcast 6500 ft
Windchill 35 °F
Dew Point 24 °F
Humidity 55%
Rainfall -999.00 in
Snow Depth Not available.
UV 0 out of 12
Pollen .30 out of 12
Air Quality Not available.
Flu Activity Not available.
METAR KDCA 300352Z 20008KT 10SM OVC065 04/M06 A2995 RMK AO2 SLP142 T00391056

More Conditions Fewer Conditions

Pressure 29.95 in
Visibility 10.0 miles
Clouds Overcast 6500 ft
Windchill 35 °F
Dew Point 24 °F
Humidity 55%
Rainfall -999.00 in
Snow Depth Not available.
UV 0 out of 12
Pollen .30 out of 12
Air Quality Not available.
Flu Activity Not available.
METAR KDCA 300352Z 20008KT 10SM OVC065 04/M06 A2995 RMK AO2 SLP142 T00391056

More Conditions Fewer Conditions

10-Day Weather Forecast

Almanac

Astronomy

Jan. 29, 2015 Rise Set
Actual Time
Civil Twilight
Nautical Twilight
Astronomical Twilight
Moon
Length of Visible Light
Length of Day
Tomorrow will be .
, % of the Moon is Illuminated

Today's Extremes

State Highs State Lows

Community

WunderPhotos

Upload Photos

1,791,703 photos uploaded!

WunderBlogs® & News

Nearby

Air Quality

  Air Quality AQ Index Pollutant
Not available.

Snow Depth

Station Depth Elevation

Earthquake Activity

City Distance Mag. Time & Date
Minimum magnitude displayed is 2.5.

Coastal Water Temperatures

Place Temperature

Nearby Weather Stations